Terminal Aerodrome Forecast
Issued by NWS

Home | Current Version | Previous Version | Graphics & Text | Print | Product List | Glossary On
Versions: 1 2 3 4 5 6 7 8 9 10 11 12 13 14 15 16 17 18 19 20 21 22 23
760
FTUS43 KBIS 151356 AAA
TAFMOT
TAF AMD
KMOT 151356Z 1514/1612 30011G20KT P6SM SCT018
     FM151900 33007KT P6SM SCT250
     FM160100 05008KT P6SM SCT005 SCT015
     FM160700 11009KT P6SM BKN015=

USA.gov is the U.S. government's official web portal to all federal, state and local government web resources and services.